sensor_id;sensor_type;location;lat;lon;timestamp;P1;durP1;ratioP1;P2;durP2;ratioP2
45254;SDS011;30989;52.078;21.014;2023-02-13T00:00:56;28.33;;;10.43;;
45254;SDS011;30989;52.078;21.014;2023-02-13T00:03:22;26.88;;;10.65;;
45254;SDS011;30989;52.078;21.014;2023-02-13T00:05:47;27.17;;;10.68;;
45254;SDS011;30989;52.078;21.014;2023-02-13T00:08:13;23.02;;;9.80;;
45254;SDS011;30989;52.078;21.014;2023-02-13T00:10:39;34.97;;;12.77;;
45254;SDS011;30989;52.078;21.014;2023-02-13T00:13:04;24.67;;;9.93;;
45254;SDS011;30989;52.078;21.014;2023-02-13T00:15:32;23.80;;;10.23;;
45254;SDS011;30989;52.078;21.014;2023-02-13T00:17:59;30.83;;;10.55;;
45254;SDS011;30989;52.078;21.014;2023-02-13T00:20:25;28.27;;;11.13;;
45254;SDS011;30989;52.078;21.014;2023-02-13T00:22:51;27.88;;;10.93;;
45254;SDS011;30989;52.078;21.014;2023-02-13T00:25:16;23.67;;;10.25;;
45254;SDS011;30989;52.078;21.014;2023-02-13T00:27:42;24.08;;;10.65;;
45254;SDS011;30989;52.078;21.014;2023-02-13T00:30:08;26.60;;;10.23;;
45254;SDS011;30989;52.078;21.014;2023-02-13T00:32:33;23.58;;;10.45;;
45254;SDS011;30989;52.078;21.014;2023-02-13T00:34:59;41.78;;;11.50;;
45254;SDS011;30989;52.078;21.014;2023-02-13T00:37:24;27.65;;;9.50;;
45254;SDS011;30989;52.078;21.014;2023-02-13T00:39:50;21.45;;;9.52;;
45254;SDS011;30989;52.078;21.014;2023-02-13T00:42:20;28.23;;;11.38;;
45254;SDS011;30989;52.078;21.014;2023-02-13T00:44:48;29.27;;;11.30;;
45254;SDS011;30989;52.078;21.014;2023-02-13T00:47:14;32.92;;;9.68;;
45254;SDS011;30989;52.078;21.014;2023-02-13T00:49:39;26.33;;;9.27;;
45254;SDS011;30989;52.078;21.014;2023-02-13T00:52:05;22.90;;;9.02;;
45254;SDS011;30989;52.078;21.014;2023-02-13T00:54:31;26.70;;;10.52;;
45254;SDS011;30989;52.078;21.014;2023-02-13T00:56:56;21.83;;;10.07;;
45254;SDS011;30989;52.078;21.014;2023-02-13T00:59:22;28.38;;;9.00;;
45254;SDS011;30989;52.078;21.014;2023-02-13T01:01:47;22.05;;;9.23;;
45254;SDS011;30989;52.078;21.014;2023-02-13T01:04:13;25.27;;;9.90;;
45254;SDS011;30989;52.078;21.014;2023-02-13T01:06:38;42.90;;;11.55;;
45254;SDS011;30989;52.078;21.014;2023-02-13T01:09:04;26.38;;;9.50;;
45254;SDS011;30989;52.078;21.014;2023-02-13T01:11:30;28.13;;;9.88;;
45254;SDS011;30989;52.078;21.014;2023-02-13T01:13:59;25.40;;;10.00;;
45254;SDS011;30989;52.078;21.014;2023-02-13T01:16:24;23.48;;;9.98;;
45254;SDS011;30989;52.078;21.014;2023-02-13T01:18:49;23.85;;;9.07;;
45254;SDS011;30989;52.078;21.014;2023-02-13T01:21:16;21.25;;;9.65;;
45254;SDS011;30989;52.078;21.014;2023-02-13T01:23:44;32.20;;;11.48;;
45254;SDS011;30989;52.078;21.014;2023-02-13T01:26:10;35.22;;;10.48;;
45254;SDS011;30989;52.078;21.014;2023-02-13T01:28:40;28.50;;;9.75;;
45254;SDS011;30989;52.078;21.014;2023-02-13T01:31:06;28.92;;;10.68;;
45254;SDS011;30989;52.078;21.014;2023-02-13T01:33:31;24.05;;;8.98;;
45254;SDS011;30989;52.078;21.014;2023-02-13T01:35:57;21.58;;;9.50;;
45254;SDS011;30989;52.078;21.014;2023-02-13T01:38:24;19.92;;;8.90;;
45254;SDS011;30989;52.078;21.014;2023-02-13T01:40:50;22.58;;;8.98;;
45254;SDS011;30989;52.078;21.014;2023-02-13T01:43:17;25.73;;;9.45;;
45254;SDS011;30989;52.078;21.014;2023-02-13T01:45:44;24.25;;;10.02;;
45254;SDS011;30989;52.078;21.014;2023-02-13T01:48:33;30.65;;;9.75;;
45254;SDS011;30989;52.078;21.014;2023-02-13T01:51:03;21.85;;;9.13;;
45254;SDS011;30989;52.078;21.014;2023-02-13T01:53:34;32.10;;;10.10;;
45254;SDS011;30989;52.078;21.014;2023-02-13T01:56:11;25.25;;;8.65;;
45254;SDS011;30989;52.078;21.014;2023-02-13T01:58:53;21.90;;;8.68;;
45254;SDS011;30989;52.078;21.014;2023-02-13T02:01:24;23.75;;;8.43;;
45254;SDS011;30989;52.078;21.014;2023-02-13T02:03:57;26.83;;;9.43;;
45254;SDS011;30989;52.078;21.014;2023-02-13T02:06:33;23.77;;;8.70;;
45254;SDS011;30989;52.078;21.014;2023-02-13T02:09:09;21.77;;;9.63;;
45254;SDS011;30989;52.078;21.014;2023-02-13T02:14:25;18.00;;;8.32;;
45254;SDS011;30989;52.078;21.014;2023-02-13T02:16:53;19.83;;;8.82;;
45254;SDS011;30989;52.078;21.014;2023-02-13T02:22:18;20.33;;;8.90;;
45254;SDS011;30989;52.078;21.014;2023-02-13T02:24:56;20.65;;;8.25;;
45254;SDS011;30989;52.078;21.014;2023-02-13T02:30:18;18.13;;;8.30;;
45254;SDS011;30989;52.078;21.014;2023-02-13T02:32:51;20.77;;;7.78;;
45254;SDS011;30989;52.078;21.014;2023-02-13T02:35:37;21.88;;;7.25;;
45254;SDS011;30989;52.078;21.014;2023-02-13T02:38:29;25.98;;;8.75;;
45254;SDS011;30989;52.078;21.014;2023-02-13T02:43:43;19.42;;;7.38;;
45254;SDS011;30989;52.078;21.014;2023-02-13T02:46:30;17.90;;;7.60;;
45254;SDS011;30989;52.078;21.014;2023-02-13T02:55:06;17.08;;;7.30;;
45254;SDS011;30989;52.078;21.014;2023-02-13T02:58:04;22.20;;;8.70;;
45254;SDS011;30989;52.078;21.014;2023-02-13T03:00:56;22.15;;;9.07;;
45254;SDS011;30989;52.078;21.014;2023-02-13T03:03:43;21.25;;;8.02;;
45254;SDS011;30989;52.078;21.014;2023-02-13T03:06:31;19.23;;;7.97;;
45254;SDS011;30989;52.078;21.014;2023-02-13T03:09:03;20.15;;;7.88;;
45254;SDS011;30989;52.078;21.014;2023-02-13T03:11:53;23.25;;;8.50;;
45254;SDS011;30989;52.078;21.014;2023-02-13T03:14:37;18.17;;;8.55;;
45254;SDS011;30989;52.078;21.014;2023-02-13T03:17:03;20.45;;;8.65;;
45254;SDS011;30989;52.078;21.014;2023-02-13T03:19:51;19.65;;;8.48;;
45254;SDS011;30989;52.078;21.014;2023-02-13T03:25:21;20.67;;;8.40;;
45254;SDS011;30989;52.078;21.014;2023-02-13T03:30:58;19.45;;;8.10;;
45254;SDS011;30989;52.078;21.014;2023-02-13T03:39:25;19.60;;;7.70;;
45254;SDS011;30989;52.078;21.014;2023-02-13T03:41:56;20.90;;;9.00;;
45254;SDS011;30989;52.078;21.014;2023-02-13T03:44:42;21.13;;;8.77;;
45254;SDS011;30989;52.078;21.014;2023-02-13T03:47:32;21.45;;;9.05;;
45254;SDS011;30989;52.078;21.014;2023-02-13T03:49:57;18.17;;;8.45;;
45254;SDS011;30989;52.078;21.014;2023-02-13T03:52:44;19.67;;;9.00;;
45254;SDS011;30989;52.078;21.014;2023-02-13T03:55:26;20.70;;;7.03;;
45254;SDS011;30989;52.078;21.014;2023-02-13T03:58:16;21.17;;;8.82;;
45254;SDS011;30989;52.078;21.014;2023-02-13T04:01:05;21.60;;;9.18;;
45254;SDS011;30989;52.078;21.014;2023-02-13T04:03:39;20.88;;;9.18;;
45254;SDS011;30989;52.078;21.014;2023-02-13T04:06:14;23.02;;;9.32;;
45254;SDS011;30989;52.078;21.014;2023-02-13T04:08:44;20.83;;;9.03;;
45254;SDS011;30989;52.078;21.014;2023-02-13T04:11:13;17.38;;;8.63;;
45254;SDS011;30989;52.078;21.014;2023-02-13T04:13:45;19.20;;;8.38;;
45254;SDS011;30989;52.078;21.014;2023-02-13T04:16:17;22.65;;;9.52;;
45254;SDS011;30989;52.078;21.014;2023-02-13T04:18:47;20.10;;;9.98;;
45254;SDS011;30989;52.078;21.014;2023-02-13T04:21:16;23.67;;;9.10;;
45254;SDS011;30989;52.078;21.014;2023-02-13T04:23:41;20.98;;;9.88;;
45254;SDS011;30989;52.078;21.014;2023-02-13T04:26:08;31.20;;;11.63;;
45254;SDS011;30989;52.078;21.014;2023-02-13T04:28:40;24.02;;;9.65;;
45254;SDS011;30989;52.078;21.014;2023-02-13T04:31:06;19.00;;;8.38;;
45254;SDS011;30989;52.078;21.014;2023-02-13T04:33:31;23.92;;;8.90;;
45254;SDS011;30989;52.078;21.014;2023-02-13T04:35:56;30.00;;;9.90;;
45254;SDS011;30989;52.078;21.014;2023-02-13T04:38:22;24.67;;;9.85;;
45254;SDS011;30989;52.078;21.014;2023-02-13T04:40:47;24.42;;;10.30;;
45254;SDS011;30989;52.078;21.014;2023-02-13T04:43:12;19.63;;;8.55;;
45254;SDS011;30989;52.078;21.014;2023-02-13T04:45:38;24.35;;;10.73;;
45254;SDS011;30989;52.078;21.014;2023-02-13T04:48:03;21.45;;;8.60;;
45254;SDS011;30989;52.078;21.014;2023-02-13T04:50:29;21.05;;;7.45;;
45254;SDS011;30989;52.078;21.014;2023-02-13T04:52:55;20.92;;;8.25;;
45254;SDS011;30989;52.078;21.014;2023-02-13T04:55:22;22.92;;;9.45;;
45254;SDS011;30989;52.078;21.014;2023-02-13T04:57:50;19.92;;;7.25;;
45254;SDS011;30989;52.078;21.014;2023-02-13T05:00:18;19.50;;;8.15;;
45254;SDS011;30989;52.078;21.014;2023-02-13T05:02:44;19.67;;;8.48;;
45254;SDS011;30989;52.078;21.014;2023-02-13T05:05:10;19.25;;;7.68;;
45254;SDS011;30989;52.078;21.014;2023-02-13T05:07:35;22.50;;;9.20;;
45254;SDS011;30989;52.078;21.014;2023-02-13T05:10:01;20.50;;;8.23;;
45254;SDS011;30989;52.078;21.014;2023-02-13T05:12:26;28.30;;;8.98;;
45254;SDS011;30989;52.078;21.014;2023-02-13T05:14:52;21.77;;;8.27;;
45254;SDS011;30989;52.078;21.014;2023-02-13T05:17:17;22.92;;;8.55;;
45254;SDS011;30989;52.078;21.014;2023-02-13T05:19:43;22.83;;;8.73;;
45254;SDS011;30989;52.078;21.014;2023-02-13T05:22:08;21.17;;;9.15;;
45254;SDS011;30989;52.078;21.014;2023-02-13T05:24:53;22.30;;;8.82;;
45254;SDS011;30989;52.078;21.014;2023-02-13T05:27:18;20.40;;;7.95;;
45254;SDS011;30989;52.078;21.014;2023-02-13T05:29:44;20.80;;;7.80;;
45254;SDS011;30989;52.078;21.014;2023-02-13T05:32:09;21.15;;;7.60;;
45254;SDS011;30989;52.078;21.014;2023-02-13T05:34:35;20.80;;;8.18;;
45254;SDS011;30989;52.078;21.014;2023-02-13T05:37:00;24.10;;;10.00;;
45254;SDS011;30989;52.078;21.014;2023-02-13T05:39:25;21.52;;;9.98;;
45254;SDS011;30989;52.078;21.014;2023-02-13T05:41:51;19.48;;;8.57;;
45254;SDS011;30989;52.078;21.014;2023-02-13T05:44:16;21.33;;;7.53;;
45254;SDS011;30989;52.078;21.014;2023-02-13T05:46:42;21.45;;;8.43;;
45254;SDS011;30989;52.078;21.014;2023-02-13T05:49:09;14.48;;;6.70;;
45254;SDS011;30989;52.078;21.014;2023-02-13T05:51:35;21.88;;;8.73;;
45254;SDS011;30989;52.078;21.014;2023-02-13T05:54:01;18.05;;;8.18;;
45254;SDS011;30989;52.078;21.014;2023-02-13T05:56:27;22.60;;;8.98;;
45254;SDS011;30989;52.078;21.014;2023-02-13T05:58:53;19.88;;;7.97;;
45254;SDS011;30989;52.078;21.014;2023-02-13T06:01:20;21.70;;;6.00;;
45254;SDS011;30989;52.078;21.014;2023-02-13T06:03:46;23.85;;;9.48;;
45254;SDS011;30989;52.078;21.014;2023-02-13T06:06:12;20.90;;;9.00;;
45254;SDS011;30989;52.078;21.014;2023-02-13T06:08:38;16.23;;;6.82;;
45254;SDS011;30989;52.078;21.014;2023-02-13T06:11:04;21.02;;;7.78;;
45254;SDS011;30989;52.078;21.014;2023-02-13T06:13:29;20.00;;;7.50;;
45254;SDS011;30989;52.078;21.014;2023-02-13T06:15:55;19.65;;;7.68;;
45254;SDS011;30989;52.078;21.014;2023-02-13T06:18:21;22.25;;;8.05;;
45254;SDS011;30989;52.078;21.014;2023-02-13T06:20:46;17.10;;;8.60;;
45254;SDS011;30989;52.078;21.014;2023-02-13T06:23:12;23.38;;;7.97;;
45254;SDS011;30989;52.078;21.014;2023-02-13T06:25:38;19.63;;;8.68;;
45254;SDS011;30989;52.078;21.014;2023-02-13T06:28:03;20.48;;;7.10;;
45254;SDS011;30989;52.078;21.014;2023-02-13T06:30:30;18.17;;;8.95;;
45254;SDS011;30989;52.078;21.014;2023-02-13T06:32:56;23.42;;;8.45;;
45254;SDS011;30989;52.078;21.014;2023-02-13T06:35:21;18.65;;;8.68;;
45254;SDS011;30989;52.078;21.014;2023-02-13T06:37:47;20.23;;;7.18;;
45254;SDS011;30989;52.078;21.014;2023-02-13T06:40:13;19.27;;;7.63;;
45254;SDS011;30989;52.078;21.014;2023-02-13T06:42:43;16.05;;;7.53;;
45254;SDS011;30989;52.078;21.014;2023-02-13T06:45:09;16.45;;;7.22;;
45254;SDS011;30989;52.078;21.014;2023-02-13T06:47:39;15.18;;;7.32;;
45254;SDS011;30989;52.078;21.014;2023-02-13T06:50:06;19.40;;;7.88;;
45254;SDS011;30989;52.078;21.014;2023-02-13T06:52:31;22.58;;;8.68;;
45254;SDS011;30989;52.078;21.014;2023-02-13T06:54:57;18.45;;;7.97;;
45254;SDS011;30989;52.078;21.014;2023-02-13T06:57:22;20.15;;;7.82;;
45254;SDS011;30989;52.078;21.014;2023-02-13T06:59:48;19.25;;;6.75;;
45254;SDS011;30989;52.078;21.014;2023-02-13T07:02:13;19.35;;;6.93;;
45254;SDS011;30989;52.078;21.014;2023-02-13T07:04:39;15.60;;;6.20;;
45254;SDS011;30989;52.078;21.014;2023-02-13T07:07:04;12.40;;;5.57;;
45254;SDS011;30989;52.078;21.014;2023-02-13T07:09:30;21.45;;;7.03;;
45254;SDS011;30989;52.078;21.014;2023-02-13T07:11:56;12.95;;;5.32;;
45254;SDS011;30989;52.078;21.014;2023-02-13T07:14:22;14.18;;;6.88;;
45254;SDS011;30989;52.078;21.014;2023-02-13T07:16:47;16.48;;;5.88;;
45254;SDS011;30989;52.078;21.014;2023-02-13T07:19:13;19.77;;;6.40;;
45254;SDS011;30989;52.078;21.014;2023-02-13T07:21:38;18.00;;;6.32;;
45254;SDS011;30989;52.078;21.014;2023-02-13T07:24:04;15.48;;;5.45;;
45254;SDS011;30989;52.078;21.014;2023-02-13T07:26:30;15.10;;;6.35;;
45254;SDS011;30989;52.078;21.014;2023-02-13T07:28:55;13.93;;;5.75;;
45254;SDS011;30989;52.078;21.014;2023-02-13T07:31:21;11.45;;;5.10;;
45254;SDS011;30989;52.078;21.014;2023-02-13T07:33:49;13.05;;;5.35;;
45254;SDS011;30989;52.078;21.014;2023-02-13T07:36:15;14.05;;;4.85;;
45254;SDS011;30989;52.078;21.014;2023-02-13T07:38:40;12.25;;;5.18;;
45254;SDS011;30989;52.078;21.014;2023-02-13T07:41:06;12.90;;;5.38;;
45254;SDS011;30989;52.078;21.014;2023-02-13T07:43:32;10.65;;;4.65;;
45254;SDS011;30989;52.078;21.014;2023-02-13T07:45:58;11.55;;;4.85;;
45254;SDS011;30989;52.078;21.014;2023-02-13T07:48:24;13.35;;;4.40;;
45254;SDS011;30989;52.078;21.014;2023-02-13T07:50:51;12.85;;;4.15;;
45254;SDS011;30989;52.078;21.014;2023-02-13T07:53:18;11.10;;;4.55;;
45254;SDS011;30989;52.078;21.014;2023-02-13T07:55:43;11.48;;;4.30;;
45254;SDS011;30989;52.078;21.014;2023-02-13T07:58:09;19.00;;;5.47;;
45254;SDS011;30989;52.078;21.014;2023-02-13T08:00:34;14.75;;;5.00;;
45254;SDS011;30989;52.078;21.014;2023-02-13T08:03:00;16.45;;;5.25;;
45254;SDS011;30989;52.078;21.014;2023-02-13T08:05:26;10.80;;;4.30;;
45254;SDS011;30989;52.078;21.014;2023-02-13T08:07:52;10.55;;;4.30;;
45254;SDS011;30989;52.078;21.014;2023-02-13T08:10:18;10.88;;;4.03;;
45254;SDS011;30989;52.078;21.014;2023-02-13T08:13:03;8.27;;;3.92;;
45254;SDS011;30989;52.078;21.014;2023-02-13T08:15:29;12.27;;;4.78;;
45254;SDS011;30989;52.078;21.014;2023-02-13T08:17:54;12.52;;;4.90;;
45254;SDS011;30989;52.078;21.014;2023-02-13T08:20:20;8.98;;;3.92;;
45254;SDS011;30989;52.078;21.014;2023-02-13T08:22:46;9.07;;;3.60;;
45254;SDS011;30989;52.078;21.014;2023-02-13T08:25:11;9.13;;;4.05;;
45254;SDS011;30989;52.078;21.014;2023-02-13T08:27:37;10.23;;;3.80;;
45254;SDS011;30989;52.078;21.014;2023-02-13T08:30:04;11.80;;;3.72;;
45254;SDS011;30989;52.078;21.014;2023-02-13T08:32:30;9.05;;;3.55;;
45254;SDS011;30989;52.078;21.014;2023-02-13T08:34:56;17.95;;;5.72;;
45254;SDS011;30989;52.078;21.014;2023-02-13T08:37:21;17.10;;;4.18;;
45254;SDS011;30989;52.078;21.014;2023-02-13T08:39:47;9.73;;;4.00;;
45254;SDS011;30989;52.078;21.014;2023-02-13T08:42:12;11.70;;;3.97;;
45254;SDS011;30989;52.078;21.014;2023-02-13T08:44:38;13.98;;;4.70;;
45254;SDS011;30989;52.078;21.014;2023-02-13T08:47:05;11.35;;;3.90;;
45254;SDS011;30989;52.078;21.014;2023-02-13T08:49:31;14.38;;;4.45;;
45254;SDS011;30989;52.078;21.014;2023-02-13T08:51:58;14.30;;;3.60;;
45254;SDS011;30989;52.078;21.014;2023-02-13T08:54:24;13.73;;;4.40;;
45254;SDS011;30989;52.078;21.014;2023-02-13T08:56:50;9.23;;;3.90;;
45254;SDS011;30989;52.078;21.014;2023-02-13T08:59:15;12.15;;;4.18;;
45254;SDS011;30989;52.078;21.014;2023-02-13T09:01:40;8.88;;;3.88;;
45254;SDS011;30989;52.078;21.014;2023-02-13T09:04:06;9.77;;;4.03;;
45254;SDS011;30989;52.078;21.014;2023-02-13T09:06:31;12.40;;;4.38;;
45254;SDS011;30989;52.078;21.014;2023-02-13T09:08:57;7.63;;;3.22;;
45254;SDS011;30989;52.078;21.014;2023-02-13T09:11:22;7.95;;;3.45;;
45254;SDS011;30989;52.078;21.014;2023-02-13T09:13:48;8.40;;;3.50;;
45254;SDS011;30989;52.078;21.014;2023-02-13T09:16:16;7.82;;;3.35;;
45254;SDS011;30989;52.078;21.014;2023-02-13T09:18:42;10.70;;;4.03;;
45254;SDS011;30989;52.078;21.014;2023-02-13T09:21:09;13.10;;;4.00;;
45254;SDS011;30989;52.078;21.014;2023-02-13T09:23:37;10.57;;;3.65;;
45254;SDS011;30989;52.078;21.014;2023-02-13T09:26:05;7.93;;;3.50;;
45254;SDS011;30989;52.078;21.014;2023-02-13T09:28:40;9.57;;;3.60;;
45254;SDS011;30989;52.078;21.014;2023-02-13T09:31:07;9.25;;;3.60;;
45254;SDS011;30989;52.078;21.014;2023-02-13T09:33:34;12.38;;;3.75;;
45254;SDS011;30989;52.078;21.014;2023-02-13T09:36:07;9.77;;;3.72;;
45254;SDS011;30989;52.078;21.014;2023-02-13T09:38:38;10.80;;;4.72;;
45254;SDS011;30989;52.078;21.014;2023-02-13T09:41:06;11.35;;;4.07;;
45254;SDS011;30989;52.078;21.014;2023-02-13T09:43:40;7.03;;;4.00;;
45254;SDS011;30989;52.078;21.014;2023-02-13T09:46:12;10.25;;;4.57;;
45254;SDS011;30989;52.078;21.014;2023-02-13T09:48:43;12.00;;;4.53;;
45254;SDS011;30989;52.078;21.014;2023-02-13T09:51:19;8.05;;;4.28;;
45254;SDS011;30989;52.078;21.014;2023-02-13T09:53:52;11.55;;;4.38;;
45254;SDS011;30989;52.078;21.014;2023-02-13T09:56:34;8.57;;;3.63;;
45254;SDS011;30989;52.078;21.014;2023-02-13T09:59:04;6.72;;;3.45;;
45254;SDS011;30989;52.078;21.014;2023-02-13T10:01:52;8.73;;;3.95;;
45254;SDS011;30989;52.078;21.014;2023-02-13T10:04:24;6.88;;;3.55;;
45254;SDS011;30989;52.078;21.014;2023-02-13T10:10:12;6.18;;;3.83;;
45254;SDS011;30989;52.078;21.014;2023-02-13T10:18:16;10.23;;;4.28;;
45254;SDS011;30989;52.078;21.014;2023-02-13T10:20:50;10.05;;;5.07;;
45254;SDS011;30989;52.078;21.014;2023-02-13T10:28:27;8.70;;;4.00;;
45254;SDS011;30989;52.078;21.014;2023-02-13T10:31:04;13.48;;;5.40;;
45254;SDS011;30989;52.078;21.014;2023-02-13T10:33:37;9.95;;;4.10;;
45254;SDS011;30989;52.078;21.014;2023-02-13T10:36:21;9.70;;;5.00;;
45254;SDS011;30989;52.078;21.014;2023-02-13T10:38:57;10.77;;;4.75;;
45254;SDS011;30989;52.078;21.014;2023-02-13T10:52:41;10.48;;;4.60;;
45254;SDS011;30989;52.078;21.014;2023-02-13T11:01:05;10.13;;;4.88;;
45254;SDS011;30989;52.078;21.014;2023-02-13T11:03:39;8.98;;;4.10;;
45254;SDS011;30989;52.078;21.014;2023-02-13T11:06:05;10.05;;;4.75;;
45254;SDS011;30989;52.078;21.014;2023-02-13T11:08:40;12.55;;;4.85;;
45254;SDS011;30989;52.078;21.014;2023-02-13T11:14:09;10.65;;;4.85;;
45254;SDS011;30989;52.078;21.014;2023-02-13T11:19:38;9.00;;;4.40;;
45254;SDS011;30989;52.078;21.014;2023-02-13T11:22:11;11.48;;;4.75;;
45254;SDS011;30989;52.078;21.014;2023-02-13T11:24:51;11.05;;;4.65;;
45254;SDS011;30989;52.078;21.014;2023-02-13T11:27:22;9.25;;;4.63;;
45254;SDS011;30989;52.078;21.014;2023-02-13T11:29:55;14.13;;;5.28;;
45254;SDS011;30989;52.078;21.014;2023-02-13T11:32:30;13.52;;;4.90;;
45254;SDS011;30989;52.078;21.014;2023-02-13T11:34:58;12.95;;;5.28;;
45254;SDS011;30989;52.078;21.014;2023-02-13T11:37:50;9.05;;;4.38;;
45254;SDS011;30989;52.078;21.014;2023-02-13T11:40:35;12.38;;;5.28;;
45254;SDS011;30989;52.078;21.014;2023-02-13T11:43:05;15.40;;;5.07;;
45254;SDS011;30989;52.078;21.014;2023-02-13T11:45:32;12.15;;;5.22;;
45254;SDS011;30989;52.078;21.014;2023-02-13T11:47:58;12.50;;;4.72;;
45254;SDS011;30989;52.078;21.014;2023-02-13T11:50:33;14.02;;;4.65;;
45254;SDS011;30989;52.078;21.014;2023-02-13T11:53:03;12.70;;;4.95;;
45254;SDS011;30989;52.078;21.014;2023-02-13T11:55:34;18.65;;;5.22;;
45254;SDS011;30989;52.078;21.014;2023-02-13T12:00:36;15.70;;;5.53;;
45254;SDS011;30989;52.078;21.014;2023-02-13T12:06:05;8.55;;;4.32;;
45254;SDS011;30989;52.078;21.014;2023-02-13T12:08:40;9.82;;;4.63;;
45254;SDS011;30989;52.078;21.014;2023-02-13T12:11:21;9.82;;;3.95;;
45254;SDS011;30989;52.078;21.014;2023-02-13T12:13:53;10.18;;;4.40;;
45254;SDS011;30989;52.078;21.014;2023-02-13T12:16:25;9.55;;;4.10;;
45254;SDS011;30989;52.078;21.014;2023-02-13T12:18:53;11.48;;;4.72;;
45254;SDS011;30989;52.078;21.014;2023-02-13T12:24:16;10.43;;;4.15;;
45254;SDS011;30989;52.078;21.014;2023-02-13T12:26:53;8.10;;;3.60;;
45254;SDS011;30989;52.078;21.014;2023-02-13T12:38:00;11.43;;;5.07;;
45254;SDS011;30989;52.078;21.014;2023-02-13T12:46:09;10.90;;;4.40;;
45254;SDS011;30989;52.078;21.014;2023-02-13T12:48:54;10.45;;;4.85;;
45254;SDS011;30989;52.078;21.014;2023-02-13T12:57:07;10.05;;;4.07;;
45254;SDS011;30989;52.078;21.014;2023-02-13T13:00:10;13.27;;;4.10;;
45254;SDS011;30989;52.078;21.014;2023-02-13T13:02:48;9.82;;;4.38;;
45254;SDS011;30989;52.078;21.014;2023-02-13T13:05:30;13.50;;;4.47;;
45254;SDS011;30989;52.078;21.014;2023-02-13T13:16:35;9.02;;;4.20;;
45254;SDS011;30989;52.078;21.014;2023-02-13T13:19:25;8.60;;;4.38;;
45254;SDS011;30989;52.078;21.014;2023-02-13T13:27:27;10.73;;;3.75;;
45254;SDS011;30989;52.078;21.014;2023-02-13T13:32:31;11.95;;;4.70;;
45254;SDS011;30989;52.078;21.014;2023-02-13T13:34:57;8.38;;;4.03;;
45254;SDS011;30989;52.078;21.014;2023-02-13T13:50:33;10.65;;;5.00;;
45254;SDS011;30989;52.078;21.014;2023-02-13T13:53:04;8.65;;;4.40;;
45254;SDS011;30989;52.078;21.014;2023-02-13T13:58:22;11.57;;;4.45;;
45254;SDS011;30989;52.078;21.014;2023-02-13T14:04:01;12.68;;;5.20;;
45254;SDS011;30989;52.078;21.014;2023-02-13T14:11:50;13.13;;;4.72;;
45254;SDS011;30989;52.078;21.014;2023-02-13T14:16:51;14.73;;;5.38;;
45254;SDS011;30989;52.078;21.014;2023-02-13T14:19:22;9.40;;;4.22;;
45254;SDS011;30989;52.078;21.014;2023-02-13T14:21:54;12.60;;;5.13;;
45254;SDS011;30989;52.078;21.014;2023-02-13T14:24:51;12.35;;;5.43;;
45254;SDS011;30989;52.078;21.014;2023-02-13T14:27:19;9.20;;;4.95;;
45254;SDS011;30989;52.078;21.014;2023-02-13T14:29:48;13.63;;;5.30;;
45254;SDS011;30989;52.078;21.014;2023-02-13T14:34:56;11.95;;;5.43;;
45254;SDS011;30989;52.078;21.014;2023-02-13T14:37:34;13.05;;;5.43;;
45254;SDS011;30989;52.078;21.014;2023-02-13T14:42:35;9.73;;;4.85;;
45254;SDS011;30989;52.078;21.014;2023-02-13T14:45:03;12.45;;;5.22;;
45254;SDS011;30989;52.078;21.014;2023-02-13T14:47:36;10.38;;;4.70;;
45254;SDS011;30989;52.078;21.014;2023-02-13T14:52:39;13.43;;;4.60;;
45254;SDS011;30989;52.078;21.014;2023-02-13T14:55:14;9.30;;;4.53;;
45254;SDS011;30989;52.078;21.014;2023-02-13T14:57:59;9.32;;;4.70;;
45254;SDS011;30989;52.078;21.014;2023-02-13T15:00:35;8.65;;;4.78;;
45254;SDS011;30989;52.078;21.014;2023-02-13T15:03:12;10.98;;;4.63;;
45254;SDS011;30989;52.078;21.014;2023-02-13T15:05:49;11.15;;;4.00;;
45254;SDS011;30989;52.078;21.014;2023-02-13T15:08:18;11.68;;;4.38;;
45254;SDS011;30989;52.078;21.014;2023-02-13T15:10:48;12.18;;;5.28;;
45254;SDS011;30989;52.078;21.014;2023-02-13T15:15:52;17.15;;;4.88;;
45254;SDS011;30989;52.078;21.014;2023-02-13T15:18:23;12.40;;;5.10;;
45254;SDS011;30989;52.078;21.014;2023-02-13T15:20:52;13.60;;;4.32;;
45254;SDS011;30989;52.078;21.014;2023-02-13T15:23:21;12.57;;;5.55;;
45254;SDS011;30989;52.078;21.014;2023-02-13T15:25:55;11.43;;;4.97;;
45254;SDS011;30989;52.078;21.014;2023-02-13T15:28:25;7.85;;;4.28;;
45254;SDS011;30989;52.078;21.014;2023-02-13T15:30:53;10.90;;;4.13;;
45254;SDS011;30989;52.078;21.014;2023-02-13T15:33:20;13.63;;;4.78;;
45254;SDS011;30989;52.078;21.014;2023-02-13T15:35:53;9.88;;;4.35;;
45254;SDS011;30989;52.078;21.014;2023-02-13T15:38:27;9.27;;;4.40;;
45254;SDS011;30989;52.078;21.014;2023-02-13T15:41:02;13.93;;;4.93;;
45254;SDS011;30989;52.078;21.014;2023-02-13T15:43:34;13.55;;;5.00;;
45254;SDS011;30989;52.078;21.014;2023-02-13T15:46:05;12.77;;;4.50;;
45254;SDS011;30989;52.078;21.014;2023-02-13T15:48:42;14.88;;;4.65;;
45254;SDS011;30989;52.078;21.014;2023-02-13T15:51:09;9.60;;;4.75;;
45254;SDS011;30989;52.078;21.014;2023-02-13T15:53:53;9.68;;;4.70;;
45254;SDS011;30989;52.078;21.014;2023-02-13T15:56:20;12.63;;;4.88;;
45254;SDS011;30989;52.078;21.014;2023-02-13T15:58:47;14.52;;;4.55;;
45254;SDS011;30989;52.078;21.014;2023-02-13T16:01:14;12.52;;;5.03;;
45254;SDS011;30989;52.078;21.014;2023-02-13T16:03:41;13.18;;;4.95;;
45254;SDS011;30989;52.078;21.014;2023-02-13T16:06:16;9.93;;;4.18;;
45254;SDS011;30989;52.078;21.014;2023-02-13T16:08:44;10.48;;;4.63;;
45254;SDS011;30989;52.078;21.014;2023-02-13T16:14:02;8.95;;;4.03;;
45254;SDS011;30989;52.078;21.014;2023-02-13T16:19:24;13.70;;;5.65;;
45254;SDS011;30989;52.078;21.014;2023-02-13T16:21:53;10.55;;;4.72;;
45254;SDS011;30989;52.078;21.014;2023-02-13T16:24:20;11.10;;;3.97;;
45254;SDS011;30989;52.078;21.014;2023-02-13T16:26:47;12.68;;;4.65;;
45254;SDS011;30989;52.078;21.014;2023-02-13T16:29:17;12.32;;;5.05;;
45254;SDS011;30989;52.078;21.014;2023-02-13T16:31:44;12.32;;;4.22;;
45254;SDS011;30989;52.078;21.014;2023-02-13T16:34:26;9.43;;;4.68;;
45254;SDS011;30989;52.078;21.014;2023-02-13T16:36:54;8.60;;;3.78;;
45254;SDS011;30989;52.078;21.014;2023-02-13T16:39:25;11.60;;;4.45;;
45254;SDS011;30989;52.078;21.014;2023-02-13T16:41:55;12.63;;;5.13;;
45254;SDS011;30989;52.078;21.014;2023-02-13T16:44:28;13.07;;;4.95;;
45254;SDS011;30989;52.078;21.014;2023-02-13T16:46:56;8.45;;;4.43;;
45254;SDS011;30989;52.078;21.014;2023-02-13T16:49:30;10.93;;;4.53;;
45254;SDS011;30989;52.078;21.014;2023-02-13T16:52:13;12.45;;;4.50;;
45254;SDS011;30989;52.078;21.014;2023-02-13T17:04:35;18.77;;;5.32;;
45254;SDS011;30989;52.078;21.014;2023-02-13T17:07:03;9.95;;;3.83;;
45254;SDS011;30989;52.078;21.014;2023-02-13T17:09:29;8.43;;;4.57;;
45254;SDS011;30989;52.078;21.014;2023-02-13T17:11:55;12.90;;;4.43;;
45254;SDS011;30989;52.078;21.014;2023-02-13T17:14:20;8.82;;;4.38;;
45254;SDS011;30989;52.078;21.014;2023-02-13T17:16:46;13.13;;;4.53;;
45254;SDS011;30989;52.078;21.014;2023-02-13T17:19:12;12.43;;;5.05;;
45254;SDS011;30989;52.078;21.014;2023-02-13T17:21:38;13.25;;;4.20;;
45254;SDS011;30989;52.078;21.014;2023-02-13T17:24:04;12.40;;;4.60;;